Nuiqsut Airport
PAQT : rendu visible

Aérodrome :











RETROUVEZ-NOUS SUR...

 
LOGIN :

S'inscrire | Disclaimer

   EN    FR    IT 

 









Légende :    VFR   VFR Marginal   IFR   IFR Intensif   IFR Très Intensif
Visi : 
Plafond : 
>= 8 km
>= 3000ft
5 à 8 km
1000 à 3000 ft
1500m à 5 km
500 à 1000 ft
800 à 1500m
200 à 500 ft
< 800m
< 200 ft
Symboles :   Orages  Brouillard  Fortes neiges  Fortes précipitations  Vent > 20 kt






- Altitude de l'aérodrome : 38 ft
- Code IATA : AQT


PAQT - Nuiqsut

DERNIER METAR :
  • 250853Z AUTO 06006KT 10SM OVC006 M01/M01 A2964 RMK SLP038 T10061011 400061022 53005 TSNO VIA AUTODIAL

METARs EXPIRÉS :
  • 250753Z AUTO 06006KT 10SM OVC008 00/M01 A2964 RMK SLP037 T00001006 TSNO VIA AUTODIAL
  • 250653Z AUTO 07007KT 10SM OVC004 01/M01 A2963 RMK SLP034 T00061006 TSNO VIA AUTODIAL
  • 250553Z AUTO 06009KT 10SM OVC003 00/M01 A2963 RMK SLP033 60000 T00001006 10006 20000 53002 TSNO VIA AUTODIAL

TAF PAQT
Valide du 25 à 06h jusqu'au 26 à 06h UTC


250520Z 2506/2606 08012KT P6SM OVC004
FM251000 07010KT 1/2SM FZFG OVC004
FM251900 07008KT 6SM BR OVC004
FIR PAZA / Amérique du Nord



MET'MAP, la Météo Aéronautique d'un coup d'oeil ! - Copyright ORBIFLY Décembre 2007 - Disclaimer

ORBIFLY MET'MAP TEAM :

Programmation & Développement : Alexandra Zaïnal
Sur une idée originale de : Baudouin d'Aumeries
Assistance à la programmation : Marc-Olivier Méhu
Soutien technique & logistique : Manuel Goepfert

Contact : metmap@orbifly.com




SOURCES & CREDITS :

   NOAA       Earth
Advisory